Decoded Metar for LIMC (MILANO MALPENSA in ITALY) (IATA:MXP) | Meteo·Mobile Aviation Weather
aviador You're here:

LIMC Decoded Metar

MILANO MALPENSA in ITALY
Report Time2019-09-17 04:50:00
UTC Time2019-09-17 05:19:04
Flight Rules vfr VFR
Wind020° at 03 kt
W.Decomp.*RWY 35: 2.6 kt HW 1.5 kt RCW
Visibility8000 m
Phenomena:Shallow Fog
Clouds:N/A
CeilingNone
Temp17°C (ISA +3)
Dew Point17°C (100% RH)
QNH1015 hPa
Density Alt1,283 ft
Elevation692 ft
Report Wrong Elevation
Raw Report
LIMC 170450Z 02003KT 8000 MIFG NSC 17/17 Q1015 NOSIG=

Extra information for LIMC:More info

Metar Taf Metar & Taf Last 4 Metars F.Rules Stats Wind Profile Meteogram Temp Stats Airport Information Weather charts Add Link Nearby VenuesMetar ALERT Operation Metar Decoded Social comments